Impacts TAF Board
For situational awareness. Not to be used for flight planning purposes.
IDs:

KABQ - Albuquerque Intl, NM, US

Issued at 1733 UTC 20 Jun 2019
Updated at 2128 UTC 20 Jun 2019
Potential Impact None Slight Moderate High
Time2052Z 20/22Z 20/23Z 21/00Z 21/01Z 21/02Z 21/03Z 21/04Z 21/05Z 21/06Z 21/07Z 21/08Z 21/09Z 21/10Z>>
Type OBS PRVL PRVL PRVL PRVL PRVL PRVL PRVL PRVL PRVL PRVL PRVL PRVL PRVL
VIS 10 >6 >6 >6 >6 >6 >6 >6 >6 >6 >6 >6 >6 >6
CIG -- -- -- -- -- -- -- -- -- -- -- -- -- --
Cover SCT FEW FEW FEW FEW SKC SKC SKC SKC SKC SKC SKC SKC SKC
FltCat VFR VFR VFR VFR VFR VFR VFR VFR VFR VFR VFR VFR VFR VFR
WX -- -- -- -- -- -- -- -- -- -- -- -- -- --
WDir 220 230 230 230 230 220 220 220 220 220 220 220 160 160
WSpd 14 10 10 10 10 8 8 8 8 8 8 8 6 6
WGst 21 18 18 18 18 -- -- -- -- -- -- -- -- --
R03/21
XWnd -1 1 1 1 1 -1 -1 -1 -1 -1 -1 -1 -5 -5
XGst -2 2 2 2 2 -- -- -- -- -- -- -- -- --
HWnd -14 -10 -10 -10 -10 -8 -8 -8 -8 -8 -8 -8 -3 -3
HGst -21 -18 -18 -18 -18 -- -- -- -- -- -- -- -- --
R08/26
XWnd -11 -6 -6 -6 -6 -6 -6 -6 -6 -6 -6 -6 -6 -6
XGst -16 -12 -12 -12 -12 -- -- -- -- -- -- -- -- --
HWnd -9 -8 -8 -8 -8 -5 -5 -5 -5 -5 -5 -5 2 2
HGst -13 -14 -14 -14 -14 -- -- -- -- -- -- -- -- --
R12/30
XWnd -14 -10 -10 -10 -10 -8 -8 -8 -8 -8 -8 -8 -3 -3
XGst -21 -18 -18 -18 -18 -- -- -- -- -- -- -- -- --
HWnd -0 -2 -2 -2 -2 -0 -0 -0 -0 -0 -0 -0 5 5
HGst -0 -3 -3 -3 -3 -- -- -- -- -- -- -- -- --
Raw TAF
KABQ 201733Z 2018/2118 21007KT P6SM FEW110
  FM202100 23010G18KT P6SM FEW150
  FM210200 22008KT P6SM SKC
  FM210900 16006KT P6SM SKC
  FM211730 23010G16KT P6SM SKC


Raw METAR
KABQ 202052Z 22014G21KT 10SM SCT140 33/M02 A2994 RMK AO2 SLP037 T03281017 56025
KABQ 201952Z 18010G22KT 10SM SCT130 32/M01 A2997 RMK AO2 SLP053 T03221011
KABQ 201852Z 17009KT 10SM FEW120 31/M01 A3000 RMK AO2 SLP062 T03111011

METAR Board
Radar Display
Forecast Discussion
For situational awareness. Not to be used for flight planning purposes.